Terminal Aerodrome Forecast
Issued by NWS

Home | Current Version | Previous Version | Text Only | Print | Product List | Glossary On
Versions: 1 2 3 4 5 6 7 8 9 10 11 12 13 14 15 16 17 18
000
FTUS46 KSGX 291135
TAFCRQ
TAF
KCRQ 291135Z 2912/3012 VRB04KT P6SM BKN011
     FM291700 VRB05KT P6SM SCT012
     FM291900 25009KT P6SM SCT100
     FM300200 VRB06KT P6SM BKN008 BKN100=

USA.gov is the U.S. government's official web portal to all federal, state and local government web resources and services.